createdAt,value
2022-08-08T00:00:55.169Z,48.06
2022-08-08T00:03:31.285Z,50.43
2022-08-08T00:06:40.632Z,51.47
2022-08-08T00:09:36.618Z,53.18
2022-08-08T00:13:04.436Z,51.34
2022-08-08T00:16:07.409Z,48.44
2022-08-08T00:19:03.022Z,48.06
2022-08-08T00:21:56.653Z,48.20
2022-08-08T00:24:45.716Z,47.81
2022-08-08T00:27:35.791Z,47.31
2022-08-08T00:30:24.202Z,47.98
2022-08-08T00:33:18.807Z,47.34
2022-08-08T00:36:17.397Z,48.91
2022-08-08T00:41:08.077Z,48.37
2022-08-08T00:42:50.823Z,49.67
2022-08-08T00:45:56.161Z,48.64
2022-08-08T00:49:04.631Z,52.79
2022-08-08T00:52:38.872Z,54.58
2022-08-08T00:55:54.662Z,50.49
2022-08-08T00:59:44.552Z,50.65
2022-08-08T01:03:55.671Z,53.15
2022-08-08T01:06:27.680Z,53.44
2022-08-08T01:09:35.043Z,48.96
2022-08-08T01:12:52.078Z,48.50
2022-08-08T01:16:02.388Z,49.16
2022-08-08T01:19:02.685Z,51.66
2022-08-08T01:22:13.443Z,54.47
2022-08-08T01:25:42.980Z,53.16
2022-08-08T01:28:51.519Z,55.03
2022-08-08T01:32:06.763Z,55.91
2022-08-08T01:35:11.813Z,56.96
2022-08-08T01:38:47.827Z,54.50
2022-08-08T01:41:50.423Z,55.76
2022-08-08T01:44:59.000Z,57.51
2022-08-08T01:48:23.525Z,55.57
2022-08-08T01:51:31.398Z,53.64
2022-08-08T01:55:25.814Z,55.88
2022-08-08T01:58:39.803Z,58.34
2022-08-08T02:02:00.361Z,58.50
2022-08-08T02:05:23.205Z,53.93
2022-08-08T02:08:22.374Z,52.48
2022-08-08T02:11:59.187Z,51.56
2022-08-08T02:14:59.380Z,51.20
2022-08-08T02:17:54.227Z,52.52
2022-08-08T02:21:21.885Z,50.32
2022-08-08T02:24:19.789Z,50.48
2022-08-08T02:27:19.114Z,51.33
2022-08-08T02:30:20.622Z,53.53
2022-08-08T02:34:00.170Z,53.92
2022-08-08T02:36:50.826Z,51.81
2022-08-08T02:39:59.856Z,52.94
2022-08-08T02:44:42.796Z,51.79
2022-08-08T02:46:27.789Z,53.16
2022-08-08T02:49:51.091Z,52.93
2022-08-08T02:53:00.103Z,54.79
2022-08-08T02:56:18.621Z,54.15
2022-08-08T02:59:57.630Z,54.23
2022-08-08T03:03:46.148Z,53.44
2022-08-08T03:06:52.003Z,51.55
2022-08-08T03:09:51.013Z,51.68
2022-08-08T03:13:33.969Z,51.92
2022-08-08T03:16:35.224Z,54.55
2022-08-08T03:19:50.827Z,55.00
2022-08-08T03:22:48.095Z,56.84
2022-08-08T03:25:42.517Z,55.29
2022-08-08T03:28:37.570Z,55.40
2022-08-08T03:32:06.111Z,54.42
2022-08-08T03:34:49.754Z,56.80
2022-08-08T03:38:54.322Z,53.26
2022-08-08T03:40:54.642Z,56.59
2022-08-08T03:43:41.591Z,53.37
2022-08-08T03:46:32.533Z,53.01
2022-08-08T03:50:00.464Z,51.42
2022-08-08T03:52:31.720Z,50.93
2022-08-08T03:55:57.641Z,51.79
2022-08-08T03:58:34.998Z,52.61
2022-08-08T04:02:13.283Z,51.34
2022-08-08T04:04:45.402Z,50.73
2022-08-08T04:07:40.134Z,50.36
2022-08-08T04:10:32.231Z,50.30
2022-08-08T04:13:23.342Z,50.59
2022-08-08T04:16:09.875Z,50.46
2022-08-08T04:18:59.164Z,49.89
2022-08-08T04:21:46.717Z,50.36
2022-08-08T04:24:35.650Z,50.71
2022-08-08T04:28:02.759Z,53.23
2022-08-08T04:30:29.221Z,51.39
2022-08-08T04:33:23.848Z,50.47
2022-08-08T04:36:13.585Z,50.98
2022-08-08T04:39:21.333Z,51.50
2022-08-08T04:42:07.606Z,51.39
2022-08-08T04:44:58.463Z,53.64
2022-08-08T04:47:47.127Z,50.90
2022-08-08T04:50:38.325Z,51.82
2022-08-08T04:54:36.503Z,51.15
2022-08-08T04:56:32.546Z,52.01
2022-08-08T04:59:26.981Z,54.27
2022-08-08T05:02:31.193Z,56.50
2022-08-08T05:05:44.327Z,53.91
2022-08-08T05:08:26.970Z,55.73
2022-08-08T05:11:24.635Z,56.28
2022-08-08T05:14:14.927Z,56.54
2022-08-08T05:17:08.655Z,57.84
2022-08-08T05:20:11.096Z,57.10
2022-08-08T05:23:00.890Z,59.03
2022-08-08T05:25:49.596Z,61.92
2022-08-08T05:28:56.796Z,62.53
2022-08-08T05:32:03.972Z,63.55
2022-08-08T05:34:50.319Z,63.55
2022-08-08T05:37:53.491Z,66.35
2022-08-08T05:40:53.270Z,70.27
2022-08-08T05:44:03.998Z,70.53
2022-08-08T05:46:52.960Z,75.28
2022-08-08T05:49:41.482Z,73.40
2022-08-08T05:52:43.938Z,74.24
2022-08-08T05:56:10.228Z,72.05
2022-08-08T05:58:57.982Z,68.49
2022-08-08T06:01:57.996Z,69.29
2022-08-08T06:04:54.404Z,70.64
2022-08-08T06:07:43.743Z,70.74
2022-08-08T06:10:34.814Z,67.74
2022-08-08T06:13:35.449Z,69.92
2022-08-08T06:16:27.397Z,70.97
2022-08-08T06:19:18.957Z,65.99
2022-08-08T06:25:18.346Z,67.12
2022-08-08T06:28:29.243Z,66.85
2022-08-08T06:31:19.625Z,62.40
2022-08-08T06:34:27.298Z,59.41
2022-08-08T06:37:24.995Z,60.21
2022-08-08T06:40:16.935Z,61.63
2022-08-08T06:43:10.634Z,59.31
2022-08-08T06:45:59.304Z,57.65
2022-08-08T06:48:46.217Z,58.49
2022-08-08T06:51:52.706Z,56.02
2022-08-08T06:54:42.586Z,57.28
2022-08-08T06:57:44.037Z,56.82
2022-08-08T07:00:40.866Z,58.34
2022-08-08T07:04:36.857Z,60.14
2022-08-08T07:07:10.410Z,57.65
2022-08-08T07:10:08.103Z,60.10
2022-08-08T07:13:00.013Z,57.23
2022-08-08T07:16:04.809Z,52.13
2022-08-08T07:19:14.980Z,55.53
2022-08-08T07:22:11.654Z,54.93
2022-08-08T07:25:01.784Z,54.64
2022-08-08T07:28:02.320Z,53.32
2022-08-08T07:30:55.677Z,50.31
2022-08-08T07:33:58.962Z,50.53
2022-08-08T07:36:50.586Z,48.27
2022-08-08T07:39:56.095Z,49.95
2022-08-08T07:42:47.319Z,54.29
2022-08-08T07:46:05.016Z,52.65
2022-08-08T07:48:42.064Z,49.94
2022-08-08T07:51:44.759Z,48.85
2022-08-08T07:55:04.384Z,50.48
2022-08-08T07:58:00.489Z,49.17
2022-08-08T08:00:53.166Z,48.37
2022-08-08T08:04:04.358Z,46.32
2022-08-08T08:06:53.054Z,46.87
2022-08-08T08:09:41.787Z,46.35
2022-08-08T08:12:35.529Z,46.29
2022-08-08T08:15:32.029Z,44.65
2022-08-08T08:18:32.283Z,44.50
2022-08-08T08:21:20.739Z,42.61
2022-08-08T08:24:32.285Z,44.52
2022-08-08T08:27:20.098Z,40.45
2022-08-08T08:30:07.340Z,39.20
2022-08-08T08:32:54.716Z,38.65
2022-08-08T08:36:19.240Z,40.29
2022-08-08T08:38:50.214Z,40.56
2022-08-08T08:41:37.331Z,40.06
2022-08-08T08:44:25.396Z,40.29
2022-08-08T08:47:18.814Z,42.67
2022-08-08T08:50:10.717Z,40.54
2022-08-08T08:53:27.266Z,39.33
2022-08-08T08:56:25.097Z,40.03
2022-08-08T08:59:17.205Z,40.00
2022-08-08T09:02:17.200Z,40.74
2022-08-08T09:05:06.102Z,41.18
2022-08-08T09:08:13.102Z,40.49
2022-08-08T09:11:03.471Z,40.52
2022-08-08T09:13:51.348Z,42.35
2022-08-08T09:16:40.960Z,43.51
2022-08-08T09:22:01.168Z,43.55
2022-08-08T09:22:39.524Z,41.94
2022-08-08T09:25:36.200Z,44.21
2022-08-08T09:28:38.784Z,46.36
2022-08-08T09:32:00.979Z,47.93
2022-08-08T09:34:50.960Z,48.20
2022-08-08T09:38:01.090Z,49.27
2022-08-08T09:40:52.560Z,48.48
2022-08-08T09:44:05.671Z,48.57
2022-08-08T09:46:57.212Z,47.23
2022-08-08T09:49:51.427Z,48.02
2022-08-08T09:52:56.595Z,48.61
2022-08-08T09:56:04.548Z,49.70
2022-08-08T09:59:20.130Z,49.00
2022-08-08T10:02:23.409Z,50.46
2022-08-08T10:05:22.845Z,49.69
2022-08-08T10:08:11.500Z,47.83
2022-08-08T10:10:58.702Z,49.35
2022-08-08T10:14:02.124Z,47.92
2022-08-08T10:16:54.884Z,50.12
2022-08-08T10:19:57.171Z,51.42
2022-08-08T10:23:00.086Z,50.27
2022-08-08T10:25:56.141Z,48.18
2022-08-08T10:29:05.388Z,48.51
2022-08-08T10:32:15.793Z,48.47
2022-08-08T10:35:11.749Z,49.88
2022-08-08T10:38:08.525Z,47.71
2022-08-08T10:40:55.760Z,47.82
2022-08-08T10:43:50.546Z,49.13
2022-08-08T10:46:37.103Z,48.64
2022-08-08T10:50:00.754Z,49.66
2022-08-08T10:52:37.278Z,49.33
2022-08-08T10:55:40.984Z,52.30
2022-08-08T10:58:29.653Z,53.90
2022-08-08T11:01:16.108Z,54.46
2022-08-08T11:04:08.225Z,58.07
2022-08-08T11:07:00.730Z,60.44
2022-08-08T11:09:47.263Z,62.48
2022-08-08T11:12:38.401Z,63.57
2022-08-08T11:15:30.596Z,63.07
2022-08-08T11:18:18.413Z,64.33
2022-08-08T11:21:08.886Z,64.89
2022-08-08T11:24:01.889Z,62.80
2022-08-08T11:26:56.339Z,61.95
2022-08-08T11:29:58.209Z,60.93
2022-08-08T11:32:53.811Z,61.99
2022-08-08T11:35:42.548Z,59.83
2022-08-08T11:38:37.127Z,57.58
2022-08-08T11:41:32.306Z,59.12
2022-08-08T11:44:28.987Z,63.20
2022-08-08T11:47:17.322Z,66.96
2022-08-08T11:50:13.013Z,71.75
2022-08-08T11:52:59.807Z,69.09
2022-08-08T11:55:50.829Z,72.17
2022-08-08T11:58:37.778Z,74.57
2022-08-08T12:01:35.402Z,77.86
2022-08-08T12:04:22.477Z,76.08
2022-08-08T12:07:14.409Z,76.60
2022-08-08T12:10:12.000Z,71.00
2022-08-08T12:13:05.051Z,71.81
2022-08-08T12:15:51.451Z,70.44
2022-08-08T12:18:44.445Z,71.66
2022-08-08T12:22:00.707Z,72.73
2022-08-08T12:24:51.139Z,73.20
2022-08-08T12:27:45.534Z,74.41
2022-08-08T12:30:33.856Z,72.31
2022-08-08T12:33:37.770Z,68.93
2022-08-08T12:36:46.398Z,69.51
2022-08-08T12:40:00.410Z,68.34
2022-08-08T12:42:47.382Z,70.69
2022-08-08T12:45:59.275Z,70.27
2022-08-08T12:49:20.766Z,70.14
2022-08-08T12:52:04.151Z,70.22
2022-08-08T12:55:13.615Z,73.83
2022-08-08T12:58:09.583Z,75.30
2022-08-08T13:01:10.965Z,76.11
2022-08-08T13:03:58.133Z,74.55
2022-08-08T13:06:53.752Z,71.93
2022-08-08T13:10:04.213Z,71.07
2022-08-08T13:12:51.875Z,67.86
2022-08-08T13:15:38.933Z,66.21
2022-08-08T13:18:27.596Z,66.14
2022-08-08T13:21:16.296Z,63.79
2022-08-08T13:24:07.500Z,63.95
2022-08-08T13:27:01.454Z,61.00
2022-08-08T13:30:02.599Z,63.54
2022-08-08T13:32:55.221Z,63.49
2022-08-08T13:35:43.934Z,63.21
2022-08-08T13:38:38.088Z,62.87
2022-08-08T13:41:26.195Z,59.71
2022-08-08T13:44:27.955Z,59.68
2022-08-08T13:47:20.184Z,59.15
2022-08-08T13:50:36.754Z,59.79
2022-08-08T13:53:31.446Z,57.12
2022-08-08T13:56:44.895Z,55.98
2022-08-08T13:59:48.769Z,54.26
2022-08-08T14:02:35.948Z,53.84
2022-08-08T14:05:36.057Z,54.87
2022-08-08T14:08:46.096Z,54.48
2022-08-08T14:11:34.064Z,53.47
2022-08-08T14:14:26.296Z,54.83
2022-08-08T14:17:36.470Z,54.68
2022-08-08T14:20:57.901Z,53.35
2022-08-08T14:24:04.421Z,52.50
2022-08-08T14:26:33.344Z,53.65
2022-08-08T14:29:27.029Z,56.45
2022-08-08T14:32:27.654Z,61.47
2022-08-08T14:35:19.223Z,65.34
2022-08-08T14:38:33.469Z,65.81
2022-08-08T14:41:45.498Z,66.17
2022-08-08T14:44:33.638Z,71.25
2022-08-08T14:47:22.100Z,71.20
2022-08-08T14:50:15.050Z,71.95
2022-08-08T14:53:14.095Z,72.42
2022-08-08T14:56:01.891Z,70.11
2022-08-08T14:58:50.839Z,71.01
2022-08-08T15:01:41.196Z,69.66
2022-08-08T15:04:28.001Z,68.92
2022-08-08T15:07:24.233Z,67.59
2022-08-08T15:10:22.844Z,67.44
2022-08-08T15:13:15.305Z,68.89
2022-08-08T15:16:03.713Z,71.02
2022-08-08T15:18:51.798Z,69.15
2022-08-08T15:21:43.052Z,69.58
2022-08-08T15:24:31.766Z,68.62
2022-08-08T15:28:04.377Z,69.27
2022-08-08T15:30:24.428Z,65.07
2022-08-08T15:33:20.835Z,70.13
2022-08-08T15:36:19.192Z,70.35
2022-08-08T15:39:14.808Z,72.87
2022-08-08T15:42:01.433Z,70.83
2022-08-08T15:44:48.009Z,70.19
2022-08-08T15:47:34.246Z,70.59
2022-08-08T15:50:21.051Z,73.29
2022-08-08T15:53:08.803Z,75.10
2022-08-08T15:55:57.383Z,73.65
2022-08-08T15:58:48.275Z,74.16
2022-08-08T16:01:40.468Z,73.47
2022-08-08T16:04:42.453Z,71.71
2022-08-08T16:07:39.176Z,74.27
2022-08-08T16:13:02.572Z,73.99
2022-08-08T16:13:43.570Z,70.25
2022-08-08T16:16:31.758Z,70.36
2022-08-08T16:19:23.334Z,68.12
2022-08-08T16:22:10.186Z,71.55
2022-08-08T16:25:16.589Z,67.41
2022-08-08T16:28:03.142Z,68.53
2022-08-08T16:30:49.760Z,69.35
2022-08-08T16:33:39.300Z,69.05
2022-08-08T16:36:33.226Z,67.60
2022-08-08T16:39:59.478Z,65.99
2022-08-08T16:42:27.366Z,67.30
2022-08-08T16:46:38.673Z,68.05
2022-08-08T16:48:20.243Z,67.85
2022-08-08T16:51:09.573Z,64.22
2022-08-08T16:55:22.957Z,64.77
2022-08-08T16:57:04.051Z,66.84
2022-08-08T17:00:10.395Z,68.75
2022-08-08T17:02:56.577Z,68.66
2022-08-08T17:05:45.024Z,70.77
2022-08-08T17:08:32.249Z,71.89
2022-08-08T17:11:19.013Z,70.28
2022-08-08T17:14:06.091Z,71.44
2022-08-08T17:17:06.479Z,70.52
2022-08-08T17:20:14.060Z,71.85
2022-08-08T17:23:25.868Z,71.49
2022-08-08T17:26:11.520Z,74.77
2022-08-08T17:29:04.071Z,74.44
2022-08-08T17:31:53.355Z,77.41
2022-08-08T17:35:27.569Z,79.87
2022-08-08T17:37:51.929Z,80.18
2022-08-08T17:40:39.794Z,83.08
2022-08-08T17:43:26.970Z,82.90
2022-08-08T17:46:39.189Z,84.52
2022-08-08T17:49:28.597Z,81.44
2022-08-08T17:52:25.204Z,83.93
2022-08-08T17:56:04.130Z,84.60
2022-08-08T17:58:18.662Z,82.50
2022-08-08T18:01:10.265Z,81.70
2022-08-08T18:03:57.964Z,81.86
2022-08-08T18:06:44.537Z,79.56
2022-08-08T18:09:38.064Z,82.53
2022-08-08T18:12:24.918Z,85.83
2022-08-08T18:15:12.242Z,88.01
2022-08-08T18:18:09.677Z,89.19
2022-08-08T18:21:10.737Z,91.19
2022-08-08T18:24:18.899Z,90.82
2022-08-08T18:27:17.589Z,90.66
2022-08-08T18:30:04.819Z,86.74
2022-08-08T18:32:51.227Z,85.61
2022-08-08T18:35:48.397Z,86.05
2022-08-08T18:38:35.094Z,85.33
2022-08-08T18:41:51.654Z,85.27
2022-08-08T18:44:29.115Z,86.12
2022-08-08T18:47:19.675Z,84.71
2022-08-08T18:50:06.383Z,83.70
2022-08-08T18:52:52.852Z,84.73
2022-08-08T18:55:40.949Z,87.15
2022-08-08T18:58:30.389Z,86.66
2022-08-08T19:02:27.143Z,89.65
2022-08-08T19:04:26.041Z,87.49
2022-08-08T19:07:16.441Z,90.31
2022-08-08T19:10:15.928Z,88.68
2022-08-08T19:13:03.792Z,86.39
2022-08-08T19:15:57.128Z,89.08
2022-08-08T19:18:51.825Z,90.13
2022-08-08T19:21:50.086Z,89.41
2022-08-08T19:24:49.269Z,89.85
2022-08-08T19:27:55.837Z,93.77
2022-08-08T19:31:03.605Z,92.67
2022-08-08T19:34:04.549Z,93.54
2022-08-08T19:36:59.113Z,92.96
2022-08-08T19:39:46.180Z,93.03
2022-08-08T19:42:37.442Z,95.05
2022-08-08T19:45:58.976Z,96.55
2022-08-08T19:48:31.709Z,95.00
2022-08-08T19:51:25.094Z,97.61
2022-08-08T19:54:21.321Z,98.68
2022-08-08T19:57:09.001Z,99.53
2022-08-08T19:59:56.086Z,98.80
2022-08-08T20:02:42.338Z,99.19
2022-08-08T20:06:13.735Z,97.14
2022-08-08T20:08:36.394Z,100.00
2022-08-08T20:11:23.735Z,100.00
2022-08-08T20:14:31.727Z,100.00
2022-08-08T20:17:26.889Z,100.00
2022-08-08T20:20:19.640Z,100.00
2022-08-08T20:23:12.234Z,99.43
2022-08-08T20:26:02.499Z,99.42
2022-08-08T20:28:50.970Z,96.60
2022-08-08T20:32:07.336Z,96.45
2022-08-08T20:34:47.444Z,95.93
2022-08-08T20:37:46.844Z,93.34
2022-08-08T20:40:41.812Z,91.69
2022-08-08T20:43:44.007Z,91.45
2022-08-08T20:46:35.482Z,89.09
2022-08-08T20:49:24.073Z,86.74
2022-08-08T20:52:27.817Z,85.54
2022-08-08T20:55:16.496Z,84.17
2022-08-08T20:58:13.846Z,82.66
2022-08-08T21:01:20.047Z,79.42
2022-08-08T21:04:07.154Z,79.66
2022-08-08T21:06:57.081Z,79.40
2022-08-08T21:10:02.148Z,78.51
2022-08-08T21:12:54.092Z,76.87
2022-08-08T21:16:06.200Z,78.80
2022-08-08T21:18:47.115Z,78.07
2022-08-08T21:21:39.461Z,77.44
2022-08-08T21:24:30.256Z,76.32
2022-08-08T21:27:38.589Z,79.23
2022-08-08T21:30:24.546Z,77.84
2022-08-08T21:33:11.779Z,78.03
2022-08-08T21:36:18.624Z,76.53
2022-08-08T21:39:04.478Z,75.77
2022-08-08T21:41:59.185Z,75.59
2022-08-08T21:44:58.814Z,76.45
2022-08-08T21:48:07.511Z,79.77
2022-08-08T21:50:53.655Z,81.49
2022-08-08T21:54:33.577Z,80.33
2022-08-08T21:56:46.755Z,78.59
2022-08-08T22:00:01.439Z,79.01
2022-08-08T22:02:44.196Z,79.22
2022-08-08T22:05:31.066Z,80.39
2022-08-08T22:08:24.676Z,79.89
2022-08-08T22:11:51.093Z,80.29
2022-08-08T22:14:17.283Z,79.88
2022-08-08T22:17:04.253Z,81.65
2022-08-08T22:20:10.642Z,81.77
2022-08-08T22:22:58.276Z,80.54
2022-08-08T22:26:28.114Z,81.03
2022-08-08T22:29:04.259Z,78.44
2022-08-08T22:32:01.526Z,77.75
2022-08-08T22:34:51.042Z,79.50
2022-08-08T22:37:53.833Z,76.93
2022-08-08T22:40:41.318Z,81.85
2022-08-08T22:43:27.399Z,78.96
2022-08-08T22:46:18.722Z,83.93
2022-08-08T22:49:05.969Z,85.41
2022-08-08T22:51:53.998Z,84.83
2022-08-08T22:54:55.869Z,86.13
2022-08-08T22:57:49.494Z,85.76
2022-08-08T23:00:36.524Z,83.55
2022-08-08T23:03:26.046Z,82.72
2022-08-08T23:06:31.977Z,84.96
2022-08-08T23:09:19.403Z,83.24
2022-08-08T23:12:27.632Z,83.60
2022-08-08T23:16:39.672Z,85.34
2022-08-08T23:18:29.667Z,84.32
2022-08-08T23:21:17.241Z,81.94
2022-08-08T23:24:07.129Z,83.33
2022-08-08T23:26:56.101Z,84.46
2022-08-08T23:29:42.759Z,78.03
2022-08-08T23:32:44.185Z,77.63
2022-08-08T23:35:34.352Z,81.79
2022-08-08T23:38:44.227Z,81.79
2022-08-08T23:41:30.931Z,82.02
2022-08-08T23:44:32.433Z,81.91
2022-08-08T23:49:04.475Z,81.07
2022-08-08T23:50:30.179Z,81.33
2022-08-08T23:53:17.237Z,81.80
2022-08-08T23:56:32.345Z,81.05
2022-08-08T23:59:20.390Z,81.06
